Time;durP1;ratioP1;P1;durP2;ratioP2;P2;SDS_P1;SDS_P2;PMS_P1;PMS_P2;Temp;Humidity;BMP_temperature;BMP_pressure;BME280_temperature;BME280_humidity;BME280_pressure;Samples;Min_cycle;Max_cycle;Signal;HPM_P1;HPM_P2
2021/05/28 00:05:10;;;;;;;7.80;3.10;;;10.50;99.90;;;;;;12423421;28;20486;-39
2021/05/28 00:11:12;;;;;;;14.60;3.47;;;10.50;99.90;;;;;;12423326;28;20091;-39
2021/05/28 00:17:14;;;;;;;14.43;3.83;;;10.50;99.90;;;;;;12425196;28;20073;-39
2021/05/28 00:23:16;;;;;;;11.65;3.60;;;10.50;99.90;;;;;;12426209;28;20045;-39
2021/05/28 00:29:18;;;;;;;15.23;3.90;;;10.50;99.90;;;;;;12427529;28;20050;-39
2021/05/28 00:35:19;;;;;;;12.20;3.58;;;10.50;99.90;;;;;;12423404;28;20053;-40
2021/05/28 00:41:21;;;;;;;9.75;3.83;;;10.40;99.90;;;;;;12421680;28;20072;-39
2021/05/28 00:47:23;;;;;;;11.55;3.72;;;10.40;99.90;;;;;;12427651;28;20054;-39
2021/05/28 00:53:26;;;;;;;11.20;4.32;;;10.40;99.90;;;;;;12422636;28;20658;-40
2021/05/28 00:59:28;;;;;;;11.57;3.92;;;10.20;99.90;;;;;;12421631;28;20046;-39
2021/05/28 01:05:32;;;;;;;12.00;3.83;;;10.40;99.90;;;;;;12427150;28;20054;-40
2021/05/28 01:11:34;;;;;;;9.73;4.05;;;10.30;99.90;;;;;;12420544;28;20722;-39
2021/05/28 01:17:37;;;;;;;12.00;4.28;;;10.20;99.90;;;;;;12417593;28;20119;-40
2021/05/28 01:23:39;;;;;;;12.00;4.30;;;10.20;99.90;;;;;;12431407;28;20103;-39
2021/05/28 01:29:41;;;;;;;14.27;4.80;;;10.00;99.90;;;;;;12433185;28;20064;-40
2021/05/28 01:35:43;;;;;;;11.52;4.18;;;10.20;99.90;;;;;;12434421;28;20060;-39
2021/05/28 01:41:44;;;;;;;11.55;4.40;;;10.10;99.90;;;;;;12431186;28;20050;-39
2021/05/28 01:47:46;;;;;;;15.50;4.15;;;10.20;99.90;;;;;;12422831;28;20053;-39
2021/05/28 01:53:48;;;;;;;11.43;3.90;;;10.10;99.90;;;;;;12421989;28;20064;-39
2021/05/28 01:59:50;;;;;;;9.65;4.30;;;10.00;99.90;;;;;;12425762;28;20060;-40
2021/05/28 02:05:52;;;;;;;8.63;4.25;;;9.80;99.90;;;;;;12424494;28;20049;-40
2021/05/28 02:11:54;;;;;;;10.48;4.13;;;9.80;99.90;;;;;;12430801;28;20056;-39
2021/05/28 02:17:56;;;;;;;11.18;3.80;;;9.90;99.90;;;;;;12434239;28;20053;-39
2021/05/28 02:23:58;;;;;;;8.45;4.20;;;9.90;99.90;;;;;;12440581;28;20053;-39
2021/05/28 02:30:01;;;;;;;11.85;3.80;;;9.60;99.90;;;;;;12437441;28;20114;-39
2021/05/28 02:36:07;;;;;;;10.60;3.88;;;9.60;99.90;;;;;;12440516;28;20191;-39
2021/05/28 02:42:09;;;;;;;8.75;4.20;;;9.50;99.90;;;;;;12440836;28;20862;-39
2021/05/28 02:48:11;;;;;;;12.15;4.28;;;9.40;99.90;;;;;;12437785;28;20449;-39
2021/05/28 02:54:13;;;;;;;10.10;3.92;;;9.30;99.90;;;;;;12436414;28;20148;-38
2021/05/28 03:00:15;;;;;;;9.43;3.25;;;9.20;99.90;;;;;;12436472;28;20042;-40
2021/05/28 03:06:17;;;;;;;11.70;4.03;;;9.20;99.90;;;;;;12434970;28;20478;-40
2021/05/28 03:12:19;;;;;;;12.23;4.43;;;9.10;99.90;;;;;;12434602;28;20057;-39
2021/05/28 03:18:23;;;;;;;7.30;3.05;;;9.00;99.90;;;;;;12438724;28;20057;-41
2021/05/28 03:24:25;;;;;;;9.70;3.83;;;9.00;99.90;;;;;;12434587;28;20049;-39
2021/05/28 03:30:27;;;;;;;8.20;3.40;;;8.90;99.90;;;;;;12436711;28;20058;-39
2021/05/28 03:36:28;;;;;;;14.32;3.42;;;8.60;99.90;;;;;;12440119;28;20127;-40
2021/05/28 03:42:30;;;;;;;7.38;3.75;;;8.70;99.90;;;;;;12435155;28;20064;-39
2021/05/28 03:48:32;;;;;;;13.55;3.70;;;8.70;99.90;;;;;;12433360;28;20048;-39
2021/05/28 03:54:34;;;;;;;14.40;3.50;;;8.70;99.90;;;;;;12434786;28;20054;-39
2021/05/28 04:00:36;;;;;;;8.77;3.75;;;8.60;99.90;;;;;;12433285;28;20110;-39
2021/05/28 04:06:38;;;;;;;11.40;3.63;;;8.60;99.90;;;;;;12434486;28;20056;-39
2021/05/28 04:12:40;;;;;;;16.23;5.82;;;8.60;99.90;;;;;;12437162;28;20519;-39
2021/05/28 04:18:42;;;;;;;15.90;5.43;;;8.60;99.90;;;;;;12436887;28;20082;-39
2021/05/28 04:24:45;;;;;;;12.77;4.80;;;8.70;99.90;;;;;;12435724;28;20096;-40
2021/05/28 04:30:47;;;;;;;17.95;5.35;;;8.90;99.90;;;;;;12434437;28;20457;-39
2021/05/28 04:36:49;;;;;;;17.23;5.53;;;9.00;99.90;;;;;;12432258;28;20042;-39
2021/05/28 04:42:51;;;;;;;10.55;5.80;;;9.00;99.90;;;;;;12428962;28;20560;-39
2021/05/28 04:48:53;;;;;;;16.98;6.53;;;9.20;99.90;;;;;;12429024;28;20054;-39
2021/05/28 04:54:54;;;;;;;12.00;5.80;;;9.30;99.90;;;;;;12431673;28;20695;-39
2021/05/28 05:00:56;;;;;;;11.57;6.28;;;9.40;99.90;;;;;;12440979;28;20130;-39
2021/05/28 05:06:58;;;;;;;14.70;6.53;;;9.60;99.90;;;;;;12442445;28;20054;-39
2021/05/28 05:13:00;;;;;;;14.18;6.80;;;9.70;99.90;;;;;;12441430;28;20523;-39
2021/05/28 05:19:02;;;;;;;15.60;7.20;;;9.70;99.90;;;;;;12441131;28;20049;-39
2021/05/28 05:25:04;;;;;;;15.57;7.90;;;9.40;99.90;;;;;;12442721;28;20050;-39
2021/05/28 05:31:06;;;;;;;12.32;7.38;;;9.40;99.90;;;;;;12442076;28;20474;-41
2021/05/28 05:37:08;;;;;;;17.77;7.47;;;9.60;99.90;;;;;;12444601;28;20090;-39
2021/05/28 05:43:10;;;;;;;13.25;7.40;;;9.50;99.90;;;;;;12442434;28;20069;-39
2021/05/28 05:49:12;;;;;;;13.90;7.88;;;9.80;99.90;;;;;;12446318;28;20056;-38
2021/05/28 05:55:15;;;;;;;11.32;7.30;;;9.90;99.90;;;;;;12439576;28;20096;-38
2021/05/28 06:01:17;;;;;;;13.00;7.93;;;10.10;99.90;;;;;;12441283;28;20045;-39
2021/05/28 06:07:19;;;;;;;12.27;7.32;;;10.30;99.90;;;;;;12437319;28;20061;-39
2021/05/28 06:13:21;;;;;;;13.88;8.13;;;10.00;99.90;;;;;;12440287;28;20111;-39
2021/05/28 06:19:26;;;;;;;11.80;7.43;;;10.60;99.90;;;;;;12438182;28;20497;-39
2021/05/28 06:25:28;;;;;;;10.60;7.55;;;10.70;99.90;;;;;;12443919;28;20045;-39
2021/05/28 06:31:30;;;;;;;11.73;7.32;;;10.50;99.90;;;;;;12438892;28;20157;-39
2021/05/28 06:37:32;;;;;;;10.75;6.70;;;10.90;99.90;;;;;;12439314;28;20095;-39
2021/05/28 06:43:34;;;;;;;13.50;6.82;;;11.00;99.90;;;;;;12440636;28;20080;-39
2021/05/28 06:49:36;;;;;;;9.77;6.53;;;10.90;99.90;;;;;;12439337;28;20436;-39
2021/05/28 06:55:39;;;;;;;10.63;7.00;;;10.90;99.90;;;;;;12442769;28;20854;-39
2021/05/28 07:01:41;;;;;;;15.77;8.40;;;11.20;99.90;;;;;;12432473;28;20692;-39
2021/05/28 07:07:43;;;;;;;10.77;7.75;;;11.00;99.90;;;;;;12440287;28;20692;-39
2021/05/28 07:13:44;;;;;;;10.90;6.80;;;10.70;99.90;;;;;;12437505;28;20107;-39
2021/05/28 07:19:47;;;;;;;12.70;7.15;;;10.60;99.90;;;;;;12439986;28;20064;-39
2021/05/28 07:25:49;;;;;;;16.10;8.23;;;11.00;99.90;;;;;;12444720;28;20045;-39
2021/05/28 07:31:51;;;;;;;11.52;8.20;;;11.00;99.90;;;;;;12439707;28;20054;-38
2021/05/28 07:37:52;;;;;;;12.75;8.45;;;10.60;99.90;;;;;;12437028;28;20642;-39
2021/05/28 07:43:54;;;;;;;14.00;8.57;;;11.10;99.90;;;;;;12438721;28;20049;-39
2021/05/28 07:49:56;;;;;;;15.13;7.97;;;11.50;99.90;;;;;;12432813;28;20041;-39
2021/05/28 07:56:00;;;;;;;13.25;9.20;;;11.40;99.90;;;;;;12438076;28;20135;-38
2021/05/28 08:02:02;;;;;;;15.77;10.35;;;11.40;99.90;;;;;;12433159;28;20617;-39
2021/05/28 08:08:09;;;;;;;14.95;8.40;;;11.40;99.90;;;;;;12437866;28;20183;-40
2021/05/28 08:14:10;;;;;;;12.07;8.35;;;11.80;99.90;;;;;;12432883;28;20148;-38
2021/05/28 08:20:14;;;;;;;11.65;8.88;;;11.90;99.90;;;;;;12439413;28;20057;-39
2021/05/28 08:26:16;;;;;;;13.20;7.43;;;11.90;99.90;;;;;;12449715;28;20054;-41
2021/05/28 08:32:17;;;;;;;8.88;6.60;;;12.30;99.90;;;;;;12453127;28;20460;-39
2021/05/28 08:38:19;;;;;;;8.65;5.70;;;12.60;99.90;;;;;;12453856;28;20057;-39
2021/05/28 08:44:25;;;;;;;9.15;6.00;;;12.60;99.90;;;;;;12447220;28;20103;-39
2021/05/28 08:50:27;;;;;;;10.05;7.03;;;12.40;99.90;;;;;;12442515;28;20103;-39
2021/05/28 08:56:32;;;;;;;10.45;6.47;;;12.70;99.90;;;;;;12448013;28;20053;-39
2021/05/28 09:02:38;;;;;;;8.45;6.68;;;12.80;99.90;;;;;;12443338;28;20781;-40
2021/05/28 09:08:40;;;;;;;12.43;6.60;;;12.90;99.90;;;;;;12448445;28;20056;-39
2021/05/28 09:14:44;;;;;;;10.57;5.45;;;13.40;99.90;;;;;;12444143;28;20123;-39
2021/05/28 09:20:53;;;;;;;9.63;6.43;;;13.40;99.90;;;;;;12442821;28;20119;-40
2021/05/28 09:26:56;;;;;;;10.13;5.85;;;13.70;99.90;;;;;;12448560;28;20049;-40
2021/05/28 09:32:58;;;;;;;9.00;6.13;;;14.30;99.90;;;;;;12442867;28;20141;-39
2021/05/28 09:39:10;;;;;;;10.32;6.97;;;14.50;99.90;;;;;;12440731;28;20050;-38
2021/05/28 09:45:32;;;;;;;10.77;6.75;;;14.50;99.90;;;;;;12448211;28;20084;-39
2021/05/28 09:51:34;;;;;;;8.75;5.80;;;15.10;99.90;;;;;;12436439;28;20120;-39
2021/05/28 09:57:39;;;;;;;6.50;5.15;;;15.40;99.90;;;;;;12436896;28;20073;-39
2021/05/28 10:03:41;;;;;;;8.27;5.90;;;15.70;99.90;;;;;;12440455;28;20157;-39
2021/05/28 10:09:43;;;;;;;7.38;5.28;;;15.40;99.90;;;;;;12440172;28;20102;-39
2021/05/28 10:15:47;;;;;;;5.47;2.83;;;16.00;99.90;;;;;;12434651;28;20042;-40
2021/05/28 10:21:49;;;;;;;4.38;3.17;;;15.70;99.90;;;;;;12437630;28;20046;-38
2021/05/28 10:27:58;;;;;;;6.68;3.95;;;16.00;99.90;;;;;;12442162;28;20798;-40
2021/05/28 10:34:01;;;;;;;7.00;3.35;;;16.50;99.90;;;;;;12427565;28;20095;-39
2021/05/28 10:40:31;;;;;;;5.35;3.45;;;16.70;99.90;;;;;;12439011;28;20038;-38
2021/05/28 10:46:34;;;;;;;5.25;2.97;;;16.50;99.90;;;;;;12435113;28;20434;-38
2021/05/28 10:52:36;;;;;;;8.37;3.50;;;16.30;99.90;;;;;;12433171;28;20393;-38
2021/05/28 10:59:01;;;;;;;6.03;3.35;;;16.70;99.90;;;;;;12436595;28;20053;-39
2021/05/28 11:05:03;;;;;;;4.00;2.73;;;16.90;99.90;;;;;;12432382;28;20049;-37
2021/05/28 11:11:05;;;;;;;5.97;3.58;;;16.60;99.90;;;;;;12432768;28;20437;-37
2021/05/28 11:17:09;;;;;;;9.57;3.83;;;16.90;99.90;;;;;;12433684;28;20053;-38
2021/05/28 11:23:16;;;;;;;5.30;3.33;;;17.10;99.90;;;;;;12431542;28;20879;-37
2021/05/28 11:29:20;;;;;;;7.72;4.00;;;17.20;99.90;;;;;;12425078;28;20095;-38
2021/05/28 11:35:24;;;;;;;8.03;3.37;;;17.30;99.90;;;;;;12437084;28;20042;-37
2021/05/28 11:42:03;;;;;;;6.97;3.40;;;17.50;99.90;;;;;;12435555;28;20052;-37
2021/05/28 11:48:13;;;;;;;7.68;3.22;;;16.90;99.90;;;;;;12434216;28;20158;-37
2021/05/28 11:54:35;;;;;;;6.45;3.80;;;17.20;99.90;;;;;;12427450;28;20800;-38
2021/05/28 12:00:37;;;;;;;6.15;3.80;;;17.00;99.90;;;;;;12426517;28;20087;-37
2021/05/28 12:06:39;;;;;;;5.03;2.60;;;17.20;99.90;;;;;;12435931;28;20049;-37
2021/05/28 12:12:58;;;;;;;4.15;2.55;;;17.50;99.90;;;;;;12431937;28;20037;-37
2021/05/28 12:19:00;;;;;;;2.88;1.88;;;17.60;99.90;;;;;;12434559;28;20060;-37
2021/05/28 12:25:05;;;;;;;4.20;2.17;;;17.70;99.90;;;;;;12433629;28;20451;-37
2021/05/28 12:31:16;;;;;;;6.38;2.45;;;18.10;99.90;;;;;;12432545;28;20572;-40
2021/05/28 12:37:18;;;;;;;3.67;2.20;;;17.10;99.90;;;;;;12432074;28;20050;-39
2021/05/28 12:43:26;;;;;;;3.83;2.03;;;16.50;99.90;;;;;;12433582;28;20089;-40
2021/05/28 12:49:33;;;;;;;4.25;2.10;;;16.40;99.90;;;;;;12428690;28;20054;-39
2021/05/28 12:55:38;;;;;;;3.42;1.58;;;16.80;99.90;;;;;;12428370;28;20085;-38
2021/05/28 13:01:40;;;;;;;2.80;1.25;;;18.20;99.90;;;;;;12435694;28;20042;-43
2021/05/28 13:07:44;;;;;;;4.80;1.20;;;19.10;99.90;;;;;;12429894;28;20071;-37
2021/05/28 13:13:51;;;;;;;4.85;1.70;;;18.30;99.90;;;;;;12427794;28;20103;-37
2021/05/28 13:19:56;;;;;;;3.42;1.30;;;17.90;99.90;;;;;;12444406;28;20136;-38
2021/05/28 13:26:08;;;;;;;3.65;1.02;;;19.10;99.90;;;;;;12440804;28;20049;-37
2021/05/28 13:32:10;;;;;;;4.95;1.58;;;19.50;99.90;;;;;;12437411;28;20428;-37
2021/05/28 13:38:12;;;;;;;3.00;1.33;;;18.60;99.90;;;;;;12437112;28;20106;-37
2021/05/28 13:44:14;;;;;;;4.20;1.45;;;18.00;99.90;;;;;;12440851;28;20527;-39
2021/05/28 13:50:16;;;;;;;3.80;1.42;;;17.20;99.90;;;;;;12437388;28;20075;-37
2021/05/28 13:56:18;;;;;;;3.05;1.80;;;16.50;99.90;;;;;;12440692;28;20060;-37
2021/05/28 14:02:20;;;;;;;3.58;1.25;;;16.20;99.90;;;;;;12436701;28;20067;-37
2021/05/28 14:08:22;;;;;;;16.10;4.85;;;16.00;99.90;;;;;;12434876;28;20071;-38
2021/05/28 14:14:24;;;;;;;3.72;0.80;;;15.80;99.90;;;;;;12429846;28;20095;-38
2021/05/28 14:20:26;;;;;;;2.50;0.90;;;15.80;99.90;;;;;;12427984;28;20053;-37
2021/05/28 14:26:29;;;;;;;5.20;1.17;;;15.50;99.90;;;;;;12437648;28;20058;-37
2021/05/28 14:32:31;;;;;;;3.88;1.02;;;15.70;99.90;;;;;;12430889;28;20045;-37
2021/05/28 14:38:32;;;;;;;3.38;1.23;;;16.40;99.90;;;;;;12427058;28;20095;-37
2021/05/28 14:44:34;;;;;;;2.53;1.42;;;17.50;99.90;;;;;;12431549;28;20592;-38
2021/05/28 14:50:36;;;;;;;5.57;1.00;;;18.00;99.90;;;;;;12438068;28;20099;-37
2021/05/28 14:56:39;;;;;;;3.08;1.00;;;16.50;99.90;;;;;;12430438;28;20061;-38
2021/05/28 15:02:42;;;;;;;1.53;0.87;;;15.70;99.90;;;;;;12438034;28;20057;-38
2021/05/28 15:08:45;;;;;;;2.85;1.20;;;15.90;99.90;;;;;;12434122;28;21508;-37
2021/05/28 15:14:47;;;;;;;139.35;9.85;;;16.70;99.90;;;;;;12434950;28;20505;-38
2021/05/28 15:20:49;;;;;;;3.03;1.00;;;16.70;99.90;;;;;;12429988;28;20053;-38
2021/05/28 15:26:51;;;;;;;3.90;1.00;;;16.50;99.90;;;;;;12436697;28;20488;-38
2021/05/28 15:32:53;;;;;;;27.83;3.08;;;16.40;99.90;;;;;;12428733;28;20049;-39
2021/05/28 15:38:55;;;;;;;11.00;1.42;;;16.70;99.90;;;;;;12434022;28;20045;-38
2021/05/28 15:44:57;;;;;;;5.35;1.10;;;16.70;99.90;;;;;;12428687;28;20099;-37
2021/05/28 15:50:59;;;;;;;6.00;1.30;;;16.80;99.90;;;;;;12432592;28;20144;-37
2021/05/28 15:57:01;;;;;;;2.78;1.40;;;17.30;99.90;;;;;;12429458;28;20625;-37
2021/05/28 16:03:07;;;;;;;1.90;1.00;;;18.60;99.90;;;;;;12431359;28;20053;-39
2021/05/28 16:09:08;;;;;;;1.65;0.90;;;18.30;99.90;;;;;;12432948;28;20148;-39
2021/05/28 16:15:11;;;;;;;3.45;1.17;;;18.00;99.90;;;;;;12431200;28;20052;-39
2021/05/28 16:21:13;;;;;;;3.08;1.10;;;18.60;99.90;;;;;;12428377;28;20100;-39
2021/05/28 16:27:15;;;;;;;2.35;1.20;;;19.30;99.90;;;;;;12429815;28;20164;-39
2021/05/28 16:33:21;;;;;;;2.28;1.27;;;19.40;99.90;;;;;;12427091;28;20054;-37
2021/05/28 16:39:23;;;;;;;3.28;1.08;;;18.40;99.90;;;;;;12433476;28;20053;-37
2021/05/28 16:45:25;;;;;;;3.17;1.10;;;17.30;99.90;;;;;;12431155;28;20054;-37
2021/05/28 16:51:27;;;;;;;2.65;1.00;;;16.40;99.90;;;;;;12444051;28;20046;-38
2021/05/28 16:57:32;;;;;;;2.72;1.02;;;16.00;99.90;;;;;;12442029;28;20083;-37
2021/05/28 17:03:35;;;;;;;2.05;1.00;;;16.10;99.90;;;;;;12425806;28;20073;-38
2021/05/28 17:09:37;;;;;;;2.70;1.05;;;15.40;99.90;;;;;;12437995;28;20049;-39
2021/05/28 17:15:39;;;;;;;2.92;1.20;;;14.80;99.90;;;;;;12438288;28;20045;-37
2021/05/28 17:21:41;;;;;;;3.00;1.02;;;14.50;99.90;;;;;;12438736;28;20045;-39
2021/05/28 17:27:44;;;;;;;3.28;1.05;;;14.80;99.90;;;;;;12439292;28;20060;-40
2021/05/28 17:33:47;;;;;;;4.72;1.20;;;15.50;99.90;;;;;;12437593;28;20575;-39
2021/05/28 17:39:51;;;;;;;3.72;1.02;;;17.30;99.90;;;;;;12438116;28;20255;-37
2021/05/28 17:45:53;;;;;;;3.15;1.00;;;17.20;99.90;;;;;;12436932;28;20060;-37
2021/05/28 17:51:55;;;;;;;2.00;0.98;;;16.70;99.90;;;;;;12430078;28;20132;-37
2021/05/28 17:57:57;;;;;;;2.45;0.98;;;15.90;99.90;;;;;;12429908;28;20072;-37
2021/05/28 18:03:59;;;;;;;3.80;1.10;;;15.30;99.90;;;;;;12432921;28;20131;-37
2021/05/28 18:10:00;;;;;;;4.30;1.08;;;15.30;99.90;;;;;;12433807;28;20053;-37
2021/05/28 18:16:03;;;;;;;3.63;1.40;;;14.80;99.90;;;;;;12434128;28;20049;-37
2021/05/28 18:22:05;;;;;;;2.78;1.10;;;14.60;99.90;;;;;;12433538;28;20079;-37
2021/05/28 18:28:07;;;;;;;2.70;1.40;;;14.40;99.90;;;;;;12437036;28;20061;-37
2021/05/28 18:34:09;;;;;;;1.67;1.25;;;14.30;99.90;;;;;;12434184;28;20045;-37
2021/05/28 18:40:14;;;;;;;3.45;1.10;;;14.20;99.90;;;;;;12426521;28;20088;-37
2021/05/28 18:46:17;;;;;;;4.70;1.40;;;14.20;99.90;;;;;;12427199;28;20162;-37
2021/05/28 18:52:19;;;;;;;3.90;1.15;;;13.90;99.90;;;;;;12437584;28;20141;-37
2021/05/28 18:58:25;;;;;;;4.50;1.50;;;13.90;99.90;;;;;;12427405;28;20049;-37
2021/05/28 19:04:27;;;;;;;4.30;1.45;;;13.70;99.90;;;;;;12437459;28;20359;-37
2021/05/28 19:10:29;;;;;;;3.58;1.35;;;13.50;99.90;;;;;;12435483;28;20095;-37
2021/05/28 19:16:31;;;;;;;4.63;1.40;;;13.40;99.90;;;;;;12435249;28;20053;-37
2021/05/28 19:22:33;;;;;;;4.57;1.50;;;13.30;99.90;;;;;;12431148;28;20056;-37
2021/05/28 19:28:35;;;;;;;3.88;1.60;;;13.20;99.90;;;;;;12437451;28;20148;-37
2021/05/28 19:34:46;;;;;;;6.03;1.60;;;13.00;99.90;;;;;;12428805;28;20140;-37
2021/05/28 19:40:50;;;;;;;7.80;1.58;;;12.80;99.90;;;;;;12435218;28;20887;-37
2021/05/28 19:46:52;;;;;;;6.25;1.88;;;12.60;99.90;;;;;;12434474;28;20056;-36
2021/05/28 19:52:56;;;;;;;3.95;1.88;;;12.50;99.90;;;;;;12436167;28;20698;-36
2021/05/28 19:59:00;;;;;;;2.80;1.77;;;12.00;99.90;;;;;;12434929;28;20127;-37
2021/05/28 20:05:02;;;;;;;8.10;2.10;;;11.40;99.90;;;;;;12427637;28;20103;-37
2021/05/28 20:11:18;;;;;;;4.07;1.85;;;11.00;99.90;;;;;;12433915;28;20054;-36
2021/05/28 20:17:20;;;;;;;5.68;1.83;;;11.00;99.90;;;;;;12430879;28;20049;-36
2021/05/28 20:23:23;;;;;;;4.00;1.77;;;11.10;99.90;;;;;;12432658;28;20050;-38
2021/05/28 20:29:24;;;;;;;3.15;1.98;;;11.30;99.90;;;;;;12444268;28;20041;-37
2021/05/28 20:35:27;;;;;;;4.63;2.20;;;11.40;99.90;;;;;;12442610;28;20118;-37
2021/05/28 20:41:28;;;;;;;3.38;1.92;;;11.60;99.90;;;;;;12449205;28;20122;-37
2021/05/28 20:47:31;;;;;;;6.45;1.98;;;11.20;99.90;;;;;;12446613;28;20073;-37
2021/05/28 20:53:37;;;;;;;3.83;2.05;;;11.40;99.90;;;;;;12445131;28;20539;-36
2021/05/28 20:59:40;;;;;;;5.85;2.38;;;11.30;99.90;;;;;;12447919;28;20110;-37
2021/05/28 21:05:42;;;;;;;6.45;2.00;;;11.50;99.90;;;;;;12405246;28;20046;-37
2021/05/28 21:11:44;;;;;;;4.05;1.92;;;11.60;99.90;;;;;;12409094;28;20061;-38
2021/05/28 21:17:46;;;;;;;5.60;2.00;;;11.10;99.90;;;;;;12442564;28;20164;-39
2021/05/28 21:23:49;;;;;;;5.88;2.70;;;11.10;99.90;;;;;;12409346;28;20046;-39
2021/05/28 21:29:51;;;;;;;6.20;2.33;;;10.80;99.90;;;;;;12391580;28;20108;-38
2021/05/28 21:35:52;;;;;;;4.47;2.63;;;11.20;99.90;;;;;;12390979;28;20049;-39
2021/05/28 21:41:55;;;;;;;4.50;2.10;;;11.30;99.90;;;;;;12391988;28;20123;-38
2021/05/28 21:47:57;;;;;;;5.90;2.22;;;11.30;99.90;;;;;;12390048;28;20050;-38
2021/05/28 21:54:00;;;;;;;3.80;2.30;;;10.90;99.90;;;;;;12389730;28;20060;-39
2021/05/28 22:00:33;;;;;;;5.05;2.30;;;11.10;99.90;;;;;;12392627;28;20058;-38
2021/05/28 22:06:34;;;;;;;3.95;1.85;;;11.20;99.90;;;;;;12387431;28;20050;-38
2021/05/28 22:12:37;;;;;;;5.00;2.35;;;11.20;99.90;;;;;;12389760;28;20046;-38
2021/05/28 22:18:40;;;;;;;5.68;2.45;;;11.20;99.90;;;;;;12392652;28;20129;-38
2021/05/28 22:24:41;;;;;;;3.72;2.10;;;11.10;99.90;;;;;;12389613;28;20108;-38
2021/05/28 22:37:06;;;;;;;4.80;2.55;;;11.10;99.90;;;;;;12394913;28;20047;-39
2021/05/28 22:43:09;;;;;;;4.38;2.70;;;11.10;99.90;;;;;;12385312;28;20209;-39
2021/05/28 22:49:14;;;;;;;4.32;2.42;;;11.10;99.90;;;;;;12393012;28;20073;-39
2021/05/28 22:55:15;;;;;;;;;;;10.80;99.90;;;;;;12385454;28;20054;-38
2021/05/28 23:01:20;;;;;;;5.82;2.72;;;10.70;99.90;;;;;;12383147;28;20015;-39
2021/05/28 23:07:22;;;;;;;8.10;4.00;;;10.70;99.90;;;;;;12390558;28;20049;-40
2021/05/28 23:13:24;;;;;;;7.70;6.07;;;10.70;99.90;;;;;;12388127;28;20057;-39
2021/05/28 23:19:25;;;;;;;10.73;7.13;;;10.80;99.90;;;;;;12387467;28;20449;-38
2021/05/28 23:25:27;;;;;;;12.15;7.20;;;10.70;99.90;;;;;;12389876;28;20074;-38
2021/05/28 23:31:29;;;;;;;9.90;7.15;;;10.90;99.90;;;;;;12388496;28;20060;-39
2021/05/28 23:37:31;;;;;;;12.23;8.23;;;11.00;99.90;;;;;;12380261;28;20423;-38
2021/05/28 23:43:37;;;;;;;12.25;8.32;;;10.80;99.90;;;;;;12384188;28;20041;-39
2021/05/28 23:49:39;;;;;;;15.88;9.50;;;10.80;99.90;;;;;;12383942;28;20052;-38
2021/05/28 23:55:41;;;;;;;14.30;9.75;;;10.70;99.90;;;;;;12385492;28;20689;-39
